createdAt,value
2016-11-28T00:00:02.078Z,0
2016-11-28T00:01:16.432Z,0
2016-11-28T00:02:30.388Z,0
2016-11-28T00:03:44.787Z,0
2016-11-28T00:04:58.852Z,0
2016-11-28T00:06:12.979Z,0
2016-11-28T00:07:26.952Z,0
2016-11-28T00:08:41.276Z,0
2016-11-28T00:09:55.479Z,0
2016-11-28T00:11:10.168Z,0
2016-11-28T00:12:24.442Z,0
2016-11-28T00:13:39.885Z,0
2016-11-28T00:14:54.108Z,0
2016-11-28T00:16:08.456Z,0
2016-11-28T00:17:22.574Z,0
2016-11-28T00:19:06.348Z,0
2016-11-28T00:20:20.669Z,0
2016-11-28T00:21:35.212Z,0
2016-11-28T00:22:49.284Z,0
2016-11-28T00:24:03.250Z,0
2016-11-28T00:25:18.182Z,0
2016-11-28T00:26:46.942Z,0
2016-11-28T00:28:01.127Z,0
2016-11-28T00:29:15.613Z,0
2016-11-28T00:30:30.015Z,0
2016-11-28T00:31:44.654Z,0
2016-11-28T00:32:58.490Z,0
2016-11-28T00:34:12.634Z,0
2016-11-28T00:35:27.443Z,0
2016-11-28T00:36:41.905Z,0
2016-11-28T00:37:55.772Z,0
2016-11-28T00:39:10.611Z,0
2016-11-28T00:40:24.643Z,0
2016-11-28T00:41:38.868Z,0
2016-11-28T00:42:52.806Z,0
2016-11-28T00:44:07.099Z,0
2016-11-28T00:45:21.174Z,0
2016-11-28T00:46:37.601Z,0
2016-11-28T00:47:52.531Z,0
2016-11-28T00:49:06.474Z,0
2016-11-28T00:50:20.853Z,0
2016-11-28T00:51:35.039Z,0
2016-11-28T00:52:49.238Z,0
2016-11-28T00:54:03.645Z,0
2016-11-28T00:55:18.134Z,0
2016-11-28T00:57:31.125Z,0
2016-11-28T00:58:45.520Z,0
2016-11-28T00:59:59.747Z,0
2016-11-28T01:01:14.202Z,0
2016-11-28T01:02:28.862Z,0
2016-11-28T01:03:42.894Z,0
2016-11-28T01:04:57.306Z,0
2016-11-28T01:06:11.783Z,0
2016-11-28T01:07:25.941Z,0
2016-11-28T01:08:40.075Z,0
2016-11-28T01:09:54.211Z,0
2016-11-28T01:11:08.908Z,0
2016-11-28T01:12:24.467Z,0
2016-11-28T01:13:39.741Z,0
2016-11-28T01:14:54.179Z,0
2016-11-28T01:16:12.716Z,0
2016-11-28T01:17:32.004Z,0
2016-11-28T01:18:49.302Z,0
2016-11-28T01:20:04.287Z,0
2016-11-28T01:21:18.141Z,0
2016-11-28T01:22:32.464Z,0
2016-11-28T01:23:46.427Z,0
2016-11-28T01:25:15.671Z,0
2016-11-28T01:26:29.917Z,0
2016-11-28T01:27:43.819Z,0
2016-11-28T01:28:58.019Z,0
2016-11-28T01:30:12.001Z,0
2016-11-28T01:31:27.271Z,0
2016-11-28T01:32:41.869Z,0
2016-11-28T01:34:10.731Z,0
2016-11-28T01:35:24.755Z,0
2016-11-28T01:36:53.619Z,0
2016-11-28T01:38:08.121Z,0
2016-11-28T01:39:22.524Z,0
2016-11-28T01:40:36.240Z,0
2016-11-28T01:41:50.480Z,0
2016-11-28T01:43:04.917Z,0
2016-11-28T01:44:19.247Z,0
2016-11-28T01:45:33.631Z,0
2016-11-28T01:46:47.612Z,0
2016-11-28T01:48:01.656Z,0
2016-11-28T01:49:30.614Z,0
2016-11-28T01:50:46.022Z,0
2016-11-28T01:52:00.362Z,0
2016-11-28T01:53:14.398Z,0
2016-11-28T01:54:28.288Z,0
2016-11-28T01:55:42.489Z,0
2016-11-28T01:56:56.569Z,0
2016-11-28T01:58:11.977Z,0
2016-11-28T01:59:26.178Z,0
2016-11-28T02:00:40.089Z,0
2016-11-28T02:01:55.035Z,0
2016-11-28T02:03:08.967Z,0
2016-11-28T02:04:23.378Z,0
2016-11-28T02:05:39.802Z,0
2016-11-28T02:06:53.994Z,0
2016-11-28T02:08:23.353Z,0
2016-11-28T02:09:37.734Z,0
2016-11-28T02:10:52.394Z,0
2016-11-28T02:12:06.556Z,0
2016-11-28T02:13:20.511Z,0
2016-11-28T02:14:34.670Z,0
2016-11-28T02:15:49.197Z,0
2016-11-28T02:17:03.355Z,0
2016-11-28T02:18:17.172Z,0
2016-11-28T02:19:31.250Z,0
2016-11-28T02:20:45.622Z,0
2016-11-28T02:21:59.546Z,0
2016-11-28T02:23:13.689Z,0
2016-11-28T02:24:27.878Z,0
2016-11-28T02:25:41.892Z,0
2016-11-28T02:26:56.115Z,0
2016-11-28T02:28:10.165Z,0
2016-11-28T02:29:23.867Z,0
2016-11-28T02:30:38.305Z,0
2016-11-28T02:31:52.631Z,0
2016-11-28T02:33:06.948Z,0
2016-11-28T02:34:21.823Z,0
2016-11-28T02:35:35.635Z,0
2016-11-28T02:36:56.037Z,0
2016-11-28T02:38:27.249Z,0
2016-11-28T02:39:42.024Z,0
2016-11-28T02:40:56.052Z,0
2016-11-28T02:42:10.234Z,0
2016-11-28T02:43:24.301Z,0
2016-11-28T02:44:38.469Z,0
2016-11-28T02:45:52.888Z,0
2016-11-28T02:47:06.932Z,0
2016-11-28T02:48:21.001Z,0
2016-11-28T02:49:35.221Z,0
2016-11-28T02:50:50.080Z,0
2016-11-28T02:52:04.304Z,0
2016-11-28T02:53:18.474Z,0
2016-11-28T02:54:32.667Z,0
2016-11-28T02:55:46.655Z,0
2016-11-28T02:57:01.498Z,0
2016-11-28T02:58:15.566Z,0
2016-11-28T02:59:29.558Z,0
2016-11-28T03:00:43.888Z,0
2016-11-28T03:01:58.072Z,0
2016-11-28T03:03:13.065Z,0
2016-11-28T03:04:27.257Z,0
2016-11-28T03:05:41.134Z,0
2016-11-28T03:06:54.957Z,0
2016-11-28T03:08:08.912Z,0
2016-11-28T03:09:23.537Z,0
2016-11-28T03:10:37.774Z,0
2016-11-28T03:11:51.622Z,0
2016-11-28T03:13:05.647Z,0
2016-11-28T03:14:34.224Z,0
2016-11-28T03:15:48.878Z,0
2016-11-28T03:17:02.994Z,0
2016-11-28T03:18:16.877Z,0
2016-11-28T03:19:28.310Z,0
2016-11-28T03:20:39.616Z,0
2016-11-28T03:21:50.928Z,0
2016-11-28T03:23:05.137Z,0
2016-11-28T03:24:16.685Z,0
2016-11-28T03:25:28.076Z,0
2016-11-28T03:26:39.431Z,0
2016-11-28T03:27:51.176Z,0
2016-11-28T03:29:03.661Z,0
2016-11-28T03:30:14.958Z,0
2016-11-28T03:31:26.810Z,0
2016-11-28T03:32:38.173Z,0
2016-11-28T03:33:49.467Z,0
2016-11-28T03:35:01.186Z,0
2016-11-28T03:36:12.954Z,0
2016-11-28T03:37:24.242Z,0
2016-11-28T03:38:36.225Z,0
2016-11-28T03:39:47.648Z,0
2016-11-28T03:40:59.363Z,0
2016-11-28T03:42:11.151Z,0
2016-11-28T03:43:22.576Z,0
2016-11-28T03:44:34.572Z,0
2016-11-28T03:45:45.954Z,0
2016-11-28T03:46:57.482Z,0
2016-11-28T03:48:09.059Z,0
2016-11-28T03:49:35.214Z,0
2016-11-28T03:50:46.591Z,0
2016-11-28T03:51:58.201Z,0
2016-11-28T03:53:09.650Z,0
2016-11-28T03:54:21.360Z,0
2016-11-28T03:55:32.738Z,0
2016-11-28T03:56:44.054Z,0
2016-11-28T03:57:55.465Z,0
2016-11-28T03:59:07.359Z,0
2016-11-28T04:00:18.727Z,0
2016-11-28T04:01:30.439Z,0
2016-11-28T04:02:41.879Z,0
2016-11-28T04:03:53.575Z,0
2016-11-28T04:05:05.230Z,0
2016-11-28T04:06:17.155Z,0
2016-11-28T04:07:28.469Z,0
2016-11-28T04:08:39.750Z,0
2016-11-28T04:09:51.344Z,0
2016-11-28T04:11:02.857Z,0
2016-11-28T04:12:14.320Z,0
2016-11-28T04:13:25.882Z,0
2016-11-28T04:14:37.254Z,0
2016-11-28T04:15:48.651Z,0
2016-11-28T04:17:00.591Z,0
2016-11-28T04:18:26.798Z,0
2016-11-28T04:19:38.198Z,0
2016-11-28T04:21:04.640Z,0
2016-11-28T04:22:16.615Z,0
2016-11-28T04:23:28.508Z,0
2016-11-28T04:24:39.787Z,0
2016-11-28T04:25:51.235Z,0
2016-11-28T04:27:02.650Z,0
2016-11-28T04:28:14.200Z,0
2016-11-28T04:29:25.458Z,0
2016-11-28T04:30:37.345Z,0
2016-11-28T04:31:49.345Z,0
2016-11-28T04:33:00.749Z,0
2016-11-28T04:34:12.383Z,0
2016-11-28T04:35:23.849Z,0
2016-11-28T04:36:36.282Z,0
2016-11-28T04:37:50.609Z,0
2016-11-28T04:39:02.230Z,0
2016-11-28T04:40:13.685Z,0
2016-11-28T04:41:25.538Z,0
2016-11-28T04:42:37.126Z,0
2016-11-28T04:43:49.320Z,0
2016-11-28T04:45:01.180Z,0
2016-11-28T04:46:13.013Z,0
2016-11-28T04:47:25.260Z,0
2016-11-28T04:48:36.455Z,0
2016-11-28T04:49:48.051Z,0
2016-11-28T04:50:59.674Z,0
2016-11-28T04:52:12.117Z,0
2016-11-28T04:53:23.450Z,0
2016-11-28T04:54:34.725Z,0
2016-11-28T04:55:46.629Z,0
2016-11-28T04:56:58.133Z,0
2016-11-28T05:00:34.980Z,0
2016-11-28T05:01:47.201Z,0
2016-11-28T05:02:58.924Z,0
2016-11-28T05:04:10.649Z,0
2016-11-28T05:05:21.928Z,0
2016-11-28T05:06:33.532Z,0
2016-11-28T05:07:45.473Z,0
2016-11-28T05:08:56.820Z,0
2016-11-28T05:10:23.167Z,0
2016-11-28T05:11:34.764Z,0
2016-11-28T05:12:46.057Z,0
2016-11-28T05:13:57.636Z,0
2016-11-28T05:15:08.922Z,0
2016-11-28T05:16:20.485Z,0
2016-11-28T05:17:32.146Z,0
2016-11-28T05:18:43.612Z,0
2016-11-28T05:19:55.470Z,0
2016-11-28T05:21:07.462Z,0
2016-11-28T05:22:19.231Z,0
2016-11-28T05:23:30.635Z,0
2016-11-28T05:24:42.565Z,0
2016-11-28T05:25:54.050Z,0
2016-11-28T05:27:05.816Z,0
2016-11-28T05:28:17.496Z,0
2016-11-28T05:29:29.103Z,0
2016-11-28T05:30:40.395Z,0
2016-11-28T05:31:52.083Z,0
2016-11-28T05:33:03.773Z,0
2016-11-28T05:34:16.685Z,0
2016-11-28T05:35:29.059Z,0
2016-11-28T05:36:41.942Z,0
2016-11-28T05:37:54.307Z,0
2016-11-28T05:39:05.933Z,0
2016-11-28T05:40:17.928Z,0
2016-11-28T05:41:29.608Z,0
2016-11-28T05:42:41.390Z,0
2016-11-28T05:43:53.345Z,0
2016-11-28T05:45:06.002Z,0
2016-11-28T05:46:17.703Z,0
2016-11-28T05:47:29.217Z,0
2016-11-28T05:48:40.968Z,0
2016-11-28T05:49:52.535Z,0
2016-11-28T05:51:04.052Z,0
2016-11-28T05:52:15.593Z,0
2016-11-28T05:53:29.652Z,0
2016-11-28T05:54:41.052Z,0
2016-11-28T05:55:52.775Z,0
2016-11-28T05:57:04.659Z,0
2016-11-28T05:58:16.563Z,0
2016-11-28T05:59:28.211Z,0
2016-11-28T06:00:39.803Z,0
2016-11-28T06:01:51.608Z,0
2016-11-28T06:03:03.589Z,0
2016-11-28T06:04:15.585Z,0
2016-11-28T06:05:27.129Z,0
2016-11-28T06:06:39.158Z,0
2016-11-28T06:07:50.500Z,0
2016-11-28T06:09:02.214Z,0
2016-11-28T06:10:14.025Z,0
2016-11-28T06:11:25.843Z,0
2016-11-28T06:12:37.185Z,0
2016-11-28T06:13:48.835Z,0
2016-11-28T06:15:00.125Z,0
2016-11-28T06:16:11.897Z,0
2016-11-28T06:17:23.094Z,0
2016-11-28T06:18:34.395Z,0
2016-11-28T06:19:45.633Z,0
2016-11-28T06:20:57.443Z,0
2016-11-28T06:22:09.102Z,0
2016-11-28T06:23:20.743Z,0
2016-11-28T06:24:32.080Z,0
2016-11-28T06:25:43.879Z,4
2016-11-28T06:26:55.334Z,4
2016-11-28T06:28:07.082Z,0
2016-11-28T06:29:18.667Z,4
2016-11-28T06:30:29.912Z,4
2016-11-28T06:31:41.150Z,4
2016-11-28T06:32:52.386Z,4
2016-11-28T06:34:04.042Z,4
2016-11-28T06:35:15.973Z,8
2016-11-28T06:36:27.507Z,8
2016-11-28T06:37:38.757Z,12
2016-11-28T06:38:50.033Z,12
2016-11-28T06:40:01.725Z,16
2016-11-28T06:41:13.264Z,16
2016-11-28T06:42:24.825Z,20
2016-11-28T06:43:36.156Z,24
2016-11-28T06:44:47.709Z,28
2016-11-28T06:45:59.167Z,36
2016-11-28T06:47:10.786Z,40
2016-11-28T06:48:22.222Z,44
2016-11-28T06:49:33.642Z,52
2016-11-28T06:50:45.443Z,60
2016-11-28T06:51:57.692Z,64
2016-11-28T06:53:08.993Z,76
2016-11-28T06:54:20.282Z,84
2016-11-28T06:55:31.666Z,96
2016-11-28T06:56:43.135Z,108
2016-11-28T06:57:55.283Z,116
2016-11-28T06:59:06.804Z,132
2016-11-28T07:00:18.356Z,144
2016-11-28T07:01:29.903Z,152
2016-11-28T07:02:41.469Z,168
2016-11-28T07:03:53.801Z,184
2016-11-28T07:05:05.287Z,200
2016-11-28T07:06:17.076Z,216
2016-11-28T07:07:30.908Z,232
2016-11-28T07:08:42.726Z,248
2016-11-28T07:09:55.011Z,268
2016-11-28T07:11:06.288Z,284
2016-11-28T07:12:17.940Z,304
2016-11-28T07:13:29.244Z,320
2016-11-28T07:14:40.431Z,340
2016-11-28T07:15:51.944Z,356
2016-11-28T07:17:03.575Z,376
2016-11-28T07:18:15.120Z,400
2016-11-28T07:19:27.051Z,416
2016-11-28T07:20:38.670Z,436
2016-11-28T07:21:50.482Z,456
2016-11-28T07:23:02.158Z,476
2016-11-28T07:24:14.246Z,496
2016-11-28T07:25:25.588Z,512
2016-11-28T07:26:37.125Z,532
2016-11-28T07:27:49.018Z,552
2016-11-28T07:29:00.620Z,572
2016-11-28T07:30:12.439Z,592
2016-11-28T07:31:24.717Z,608
2016-11-28T07:32:36.129Z,628
2016-11-28T07:33:48.181Z,644
2016-11-28T07:34:59.735Z,664
2016-11-28T07:36:11.565Z,680
2016-11-28T07:37:23.205Z,696
2016-11-28T07:38:35.203Z,716
2016-11-28T07:39:47.213Z,736
2016-11-28T07:40:59.032Z,752
2016-11-28T07:42:10.253Z,764
2016-11-28T07:43:21.890Z,784
2016-11-28T07:44:33.834Z,796
2016-11-28T07:45:45.677Z,808
2016-11-28T07:46:57.065Z,824
2016-11-28T07:48:08.723Z,840
2016-11-28T07:49:20.418Z,856
2016-11-28T07:50:31.967Z,868
2016-11-28T07:51:44.176Z,880
2016-11-28T07:52:55.715Z,892
2016-11-28T07:54:07.255Z,908
2016-11-28T07:55:18.532Z,920
2016-11-28T07:56:30.604Z,936
2016-11-28T07:57:42.649Z,944
2016-11-28T07:58:54.048Z,956
2016-11-28T08:00:06.090Z,968
2016-11-28T08:01:17.861Z,980
2016-11-28T08:02:29.530Z,996
2016-11-28T08:03:41.743Z,1008
2016-11-28T08:04:53.178Z,1020
2016-11-28T08:06:04.905Z,1028
2016-11-28T08:07:16.497Z,1040
2016-11-28T08:08:27.896Z,1052
2016-11-28T08:09:39.963Z,1064
2016-11-28T08:10:51.248Z,1076
2016-11-28T08:12:02.767Z,1088
2016-11-28T08:13:29.293Z,1108
2016-11-28T08:14:41.397Z,1116
2016-11-28T08:15:53.882Z,1128
2016-11-28T08:17:05.912Z,1140
2016-11-28T08:18:17.434Z,1152
2016-11-28T08:19:29.124Z,1164
2016-11-28T08:20:40.771Z,1172
2016-11-28T08:21:55.471Z,1180
2016-11-28T08:23:07.324Z,1192
2016-11-28T08:24:19.382Z,1200
2016-11-28T08:25:31.111Z,1212
2016-11-28T08:26:42.947Z,1220
2016-11-28T08:27:54.892Z,1236
2016-11-28T08:29:06.863Z,1244
2016-11-28T08:30:18.470Z,1252
2016-11-28T08:31:30.275Z,1264
2016-11-28T08:32:42.137Z,1272
2016-11-28T08:33:53.681Z,1284
2016-11-28T08:35:06.082Z,1292
2016-11-28T08:36:17.829Z,1300
2016-11-28T08:37:29.459Z,1312
2016-11-28T08:38:40.947Z,1320
2016-11-28T08:39:52.768Z,1332
2016-11-28T08:41:04.508Z,1340
2016-11-28T08:42:16.736Z,1348
2016-11-28T08:43:27.970Z,1356
2016-11-28T08:44:39.657Z,1368
2016-11-28T08:45:51.593Z,1380
2016-11-28T08:47:02.962Z,1388
2016-11-28T08:48:14.517Z,1396
2016-11-28T08:49:25.832Z,1408
2016-11-28T08:50:37.270Z,1412
2016-11-28T08:51:48.805Z,1420
2016-11-28T08:53:02.596Z,1428
2016-11-28T08:54:16.778Z,1476
2016-11-28T08:55:30.871Z,1852
2016-11-28T08:56:45.118Z,1848
2016-11-28T08:57:59.622Z,1492
2016-11-28T08:59:14.234Z,1464
2016-11-28T09:00:28.864Z,1476
2016-11-28T09:01:43.261Z,1480
2016-11-28T09:02:57.870Z,1488
2016-11-28T09:04:12.434Z,1492
2016-11-28T09:05:26.578Z,1500
2016-11-28T09:06:41.103Z,1524
2016-11-28T09:07:55.424Z,1628
2016-11-28T09:09:09.507Z,1644
2016-11-28T09:10:24.017Z,1580
2016-11-28T09:11:37.906Z,1988
2016-11-28T09:12:51.880Z,2152
2016-11-28T09:14:06.051Z,2160
2016-11-28T09:15:20.531Z,1920
2016-11-28T09:16:34.451Z,1604
2016-11-28T09:17:48.346Z,1556
2016-11-28T09:19:03.149Z,1560
2016-11-28T09:20:17.571Z,1564
2016-11-28T09:21:32.280Z,1564
2016-11-28T09:22:46.912Z,1568
2016-11-28T09:24:01.557Z,1576
2016-11-28T09:25:30.622Z,1580
2016-11-28T09:26:45.523Z,1588
2016-11-28T09:27:59.606Z,1588
2016-11-28T09:29:13.953Z,1596
2016-11-28T09:30:27.720Z,1596
2016-11-28T09:31:41.531Z,1600
2016-11-28T09:32:55.772Z,1604
2016-11-28T09:34:10.315Z,1608
2016-11-28T09:35:24.520Z,1612
2016-11-28T09:36:38.636Z,1608
2016-11-28T09:37:54.685Z,1612
2016-11-28T09:39:08.814Z,1616
2016-11-28T09:40:23.205Z,1620
2016-11-28T09:41:37.100Z,1616
2016-11-28T09:42:50.989Z,1624
2016-11-28T09:44:05.464Z,1624
2016-11-28T09:45:19.893Z,1628
2016-11-28T09:46:33.886Z,1624
2016-11-28T09:47:48.720Z,1620
2016-11-28T09:49:03.062Z,1628
2016-11-28T09:50:18.129Z,1632
2016-11-28T09:51:33.264Z,1632
2016-11-28T09:52:48.208Z,1628
2016-11-28T09:54:02.900Z,1632
2016-11-28T09:55:16.810Z,1632
2016-11-28T09:56:30.752Z,1636
2016-11-28T09:57:45.461Z,1640
2016-11-28T09:58:59.996Z,1636
2016-11-28T10:00:13.817Z,1640
2016-11-28T10:01:27.638Z,1640
2016-11-28T10:02:41.590Z,1640
2016-11-28T10:03:55.760Z,1640
2016-11-28T10:05:11.122Z,1636
2016-11-28T10:06:25.098Z,1636
2016-11-28T10:07:40.187Z,1640
2016-11-28T10:08:55.234Z,1664
2016-11-28T10:10:09.345Z,1680
2016-11-28T10:11:24.210Z,1656
2016-11-28T10:12:37.978Z,1644
2016-11-28T10:13:51.760Z,1424
2016-11-28T10:15:05.489Z,1644
2016-11-28T10:16:19.740Z,1652
2016-11-28T10:17:34.203Z,1644
2016-11-28T10:18:48.280Z,1656
2016-11-28T10:20:16.939Z,1676
2016-11-28T10:21:31.300Z,1688
2016-11-28T10:22:45.197Z,1708
2016-11-28T10:25:28.773Z,1664
2016-11-28T10:26:42.926Z,1696
2016-11-28T10:27:56.690Z,2032
2016-11-28T10:29:10.607Z,1636
2016-11-28T10:30:24.340Z,1652
2016-11-28T10:31:38.898Z,1656
2016-11-28T10:33:08.612Z,1692
2016-11-28T10:34:23.018Z,1732
2016-11-28T10:35:37.078Z,1660
2016-11-28T10:36:51.311Z,1660
2016-11-28T10:38:05.087Z,1652
2016-11-28T10:39:19.745Z,1652
2016-11-28T10:40:33.788Z,1644
2016-11-28T10:41:47.489Z,1644
2016-11-28T10:43:01.412Z,1640
2016-11-28T10:44:15.943Z,1624
2016-11-28T10:45:30.537Z,1624
2016-11-28T10:46:44.893Z,1628
2016-11-28T10:47:58.841Z,1648
2016-11-28T10:49:12.852Z,1740
2016-11-28T10:50:26.629Z,1636
2016-11-28T10:51:40.785Z,1660
2016-11-28T10:52:55.018Z,1660
2016-11-28T10:54:09.093Z,1764
2016-11-28T10:55:25.391Z,1628
2016-11-28T10:56:39.626Z,1644
2016-11-28T10:57:53.752Z,1664
2016-11-28T10:59:08.237Z,1692
2016-11-28T11:00:22.255Z,1632
2016-11-28T11:01:37.368Z,1620
2016-11-28T11:03:09.466Z,1672
2016-11-28T11:04:23.767Z,1556
2016-11-28T11:05:38.279Z,1576
2016-11-28T11:06:53.033Z,1680
2016-11-28T11:08:06.885Z,1652
2016-11-28T11:09:20.575Z,1728
2016-11-28T11:10:35.020Z,1700
2016-11-28T11:11:48.842Z,1760
2016-11-28T11:13:03.625Z,1788
2016-11-28T11:14:18.028Z,1832
2016-11-28T11:15:32.651Z,1988
2016-11-28T11:16:47.046Z,1948
2016-11-28T11:18:00.954Z,2136
2016-11-28T11:19:14.789Z,2316
2016-11-28T11:20:28.704Z,2304
2016-11-28T11:21:43.040Z,2468
2016-11-28T11:22:57.435Z,2032
2016-11-28T11:24:11.317Z,2212
2016-11-28T11:25:25.901Z,2464
2016-11-28T11:26:39.916Z,2796
2016-11-28T11:27:54.111Z,2620
2016-11-28T11:29:08.357Z,2080
2016-11-28T11:30:22.872Z,2164
2016-11-28T11:31:36.998Z,2212
2016-11-28T11:32:51.179Z,1988
2016-11-28T11:34:05.463Z,2456
2016-11-28T11:35:19.607Z,2132
2016-11-28T11:36:48.606Z,1804
2016-11-28T11:38:02.684Z,1692
2016-11-28T11:39:16.348Z,1700
2016-11-28T11:40:30.475Z,1704
2016-11-28T11:41:44.155Z,1744
2016-11-28T11:42:58.315Z,1600
2016-11-28T11:44:12.374Z,1556
2016-11-28T11:45:26.029Z,1720
2016-11-28T11:46:55.394Z,1840
2016-11-28T11:48:09.644Z,1892
2016-11-28T11:49:23.646Z,1768
2016-11-28T11:50:37.574Z,1772
2016-11-28T11:51:52.217Z,1868
2016-11-28T11:53:06.525Z,1976
2016-11-28T11:54:20.885Z,1716
2016-11-28T11:55:35.042Z,1668
2016-11-28T11:56:48.942Z,1660
2016-11-28T11:58:03.439Z,1660
2016-11-28T11:59:18.134Z,1664
2016-11-28T12:00:32.028Z,1680
2016-11-28T12:01:45.847Z,1696
2016-11-28T12:02:59.930Z,1652
2016-11-28T12:04:14.214Z,1456
2016-11-28T12:05:28.635Z,1484
2016-11-28T12:06:42.767Z,1588
2016-11-28T12:09:26.126Z,1604
2016-11-28T12:10:40.787Z,1600
2016-11-28T12:11:54.880Z,1600
2016-11-28T12:13:10.960Z,1600
2016-11-28T12:14:25.357Z,1600
2016-11-28T12:15:39.307Z,1604
2016-11-28T12:16:53.255Z,1604
2016-11-28T12:18:07.572Z,1604
2016-11-28T12:19:21.757Z,1628
2016-11-28T12:20:35.927Z,1628
2016-11-28T12:21:49.649Z,1608
2016-11-28T12:23:03.888Z,1612
2016-11-28T12:24:18.369Z,1608
2016-11-28T12:25:32.472Z,1612
2016-11-28T12:26:46.725Z,1616
2016-11-28T12:28:00.416Z,1616
2016-11-28T12:29:14.745Z,1616
2016-11-28T12:30:33.518Z,1616
2016-11-28T12:31:47.589Z,1616
2016-11-28T12:33:01.518Z,1620
2016-11-28T12:34:15.266Z,1624
2016-11-28T12:35:29.624Z,1624
2016-11-28T12:36:43.801Z,1628
2016-11-28T12:37:57.840Z,1628
2016-11-28T12:39:12.252Z,1632
2016-11-28T12:40:26.320Z,1628
2016-11-28T12:41:40.685Z,1624
2016-11-28T12:42:54.388Z,1628
2016-11-28T12:44:08.185Z,1628
2016-11-28T12:45:22.745Z,1636
2016-11-28T12:46:36.523Z,1624
2016-11-28T12:47:50.775Z,1628
2016-11-28T12:49:04.533Z,1628
2016-11-28T12:50:18.196Z,1632
2016-11-28T12:51:32.877Z,1632
2016-11-28T12:52:46.648Z,1632
2016-11-28T12:54:00.975Z,1628
2016-11-28T12:55:15.450Z,1628
2016-11-28T12:56:29.735Z,1628
2016-11-28T12:57:43.949Z,1628
2016-11-28T12:58:57.861Z,1628
2016-11-28T13:00:12.849Z,1628
2016-11-28T13:01:27.084Z,1624
2016-11-28T13:02:41.352Z,1624
2016-11-28T13:03:56.029Z,1620
2016-11-28T13:05:25.527Z,1628
2016-11-28T13:06:40.815Z,1644
2016-11-28T13:07:55.393Z,1668
2016-11-28T13:09:09.303Z,1652
2016-11-28T13:10:23.830Z,1624
2016-11-28T13:11:53.245Z,1620
2016-11-28T13:13:22.686Z,1620
2016-11-28T13:14:36.990Z,1616
2016-11-28T13:15:51.043Z,1616
2016-11-28T13:17:06.628Z,1612
2016-11-28T13:18:20.989Z,1608
2016-11-28T13:19:35.091Z,1604
2016-11-28T13:20:49.098Z,1600
2016-11-28T13:22:03.486Z,1592
2016-11-28T13:24:47.557Z,1584
2016-11-28T13:26:02.179Z,1576
2016-11-28T13:27:17.724Z,1572
2016-11-28T13:28:32.093Z,1568
2016-11-28T13:29:46.193Z,1560
2016-11-28T13:31:02.296Z,1556
2016-11-28T13:32:16.925Z,1548
2016-11-28T13:33:31.244Z,1540
2016-11-28T13:34:45.182Z,1536
2016-11-28T13:35:59.312Z,1528
2016-11-28T13:37:13.479Z,1520
2016-11-28T13:38:27.693Z,1516
2016-11-28T13:39:41.894Z,1512
2016-11-28T13:40:56.662Z,1504
2016-11-28T13:42:12.136Z,1492
2016-11-28T13:43:26.351Z,1488
2016-11-28T13:44:40.269Z,1480
2016-11-28T13:45:54.677Z,1472
2016-11-28T13:47:09.003Z,1464
2016-11-28T13:48:23.043Z,1460
2016-11-28T13:49:37.531Z,1452
2016-11-28T13:50:51.561Z,1440
2016-11-28T13:52:10.057Z,1432
2016-11-28T13:53:39.192Z,1424
2016-11-28T13:54:53.204Z,1412
2016-11-28T13:56:07.680Z,1404
2016-11-28T13:57:21.736Z,1396
2016-11-28T13:58:36.253Z,1384
2016-11-28T13:59:50.581Z,1376
2016-11-28T14:01:04.844Z,1364
2016-11-28T14:02:33.640Z,1352
2016-11-28T14:03:47.877Z,1344
2016-11-28T14:05:02.047Z,1332
2016-11-28T14:06:16.172Z,1324
2016-11-28T14:07:30.190Z,1312
2016-11-28T14:08:44.011Z,1308
2016-11-28T14:09:57.836Z,1296
2016-11-28T14:11:11.871Z,1288
2016-11-28T14:12:26.311Z,1272
2016-11-28T14:13:40.308Z,1264
2016-11-28T14:14:54.514Z,1248
2016-11-28T14:16:08.513Z,1236
2016-11-28T14:17:22.787Z,1224
2016-11-28T14:18:37.140Z,1208
2016-11-28T14:19:50.857Z,1196
2016-11-28T14:21:04.620Z,1180
2016-11-28T14:22:18.933Z,1168
2016-11-28T14:23:33.227Z,1156
2016-11-28T14:24:47.591Z,1140
2016-11-28T14:26:02.100Z,1128
2016-11-28T14:27:16.096Z,1112
2016-11-28T14:28:31.066Z,1096
2016-11-28T14:29:48.562Z,1080
2016-11-28T14:31:02.604Z,1068
2016-11-28T14:32:17.656Z,1048
2016-11-28T14:33:33.158Z,1032
2016-11-28T14:34:47.232Z,1020
2016-11-28T14:36:01.348Z,1004
2016-11-28T14:37:15.660Z,984
2016-11-28T14:38:30.049Z,972
2016-11-28T14:39:44.819Z,956
2016-11-28T14:40:58.906Z,936
2016-11-28T14:42:13.216Z,920
2016-11-28T14:43:28.746Z,900
2016-11-28T14:44:43.778Z,884
2016-11-28T14:45:57.957Z,864
2016-11-28T14:47:13.882Z,844
2016-11-28T14:48:30.739Z,828
2016-11-28T14:49:46.024Z,808
2016-11-28T14:51:00.647Z,788
2016-11-28T14:52:15.535Z,768
2016-11-28T14:53:30.955Z,748
2016-11-28T14:54:46.127Z,728
2016-11-28T14:56:02.579Z,704
2016-11-28T14:57:19.013Z,680
2016-11-28T14:58:34.206Z,656
2016-11-28T14:59:48.426Z,636
2016-11-28T15:01:04.514Z,612
2016-11-28T15:02:20.205Z,588
2016-11-28T15:03:34.959Z,564
2016-11-28T15:04:50.396Z,540
2016-11-28T15:06:20.900Z,508
2016-11-28T15:07:36.087Z,488
2016-11-28T15:08:50.598Z,464
2016-11-28T15:10:04.827Z,436
2016-11-28T15:11:18.749Z,416
2016-11-28T15:12:32.868Z,392
2016-11-28T15:13:47.071Z,368
2016-11-28T15:15:01.671Z,344
2016-11-28T15:16:16.524Z,324
2016-11-28T15:17:30.712Z,300
2016-11-28T15:18:59.528Z,276
2016-11-28T15:20:13.574Z,252
2016-11-28T15:21:27.831Z,232
2016-11-28T15:22:41.691Z,208
2016-11-28T15:23:55.852Z,192
2016-11-28T15:25:10.478Z,176
2016-11-28T15:26:24.683Z,156
2016-11-28T15:27:38.993Z,140
2016-11-28T15:28:53.089Z,124
2016-11-28T15:30:06.991Z,112
2016-11-28T15:31:21.379Z,96
2016-11-28T15:32:35.335Z,84
2016-11-28T15:33:49.225Z,76
2016-11-28T15:35:03.016Z,68
2016-11-28T15:36:17.106Z,56
2016-11-28T15:37:31.733Z,48
2016-11-28T15:38:45.649Z,40
2016-11-28T15:39:59.616Z,36
2016-11-28T15:41:13.529Z,28
2016-11-28T15:42:27.562Z,24
2016-11-28T15:43:41.906Z,20
2016-11-28T15:44:56.048Z,16
2016-11-28T15:46:10.202Z,12
2016-11-28T15:47:24.105Z,12
2016-11-28T15:48:38.147Z,12
2016-11-28T15:49:52.723Z,8
2016-11-28T15:51:07.025Z,4
2016-11-28T15:52:21.902Z,4
2016-11-28T15:53:35.838Z,4
2016-11-28T15:54:49.654Z,0
2016-11-28T15:56:03.683Z,4
2016-11-28T15:57:32.380Z,0
2016-11-28T15:58:46.390Z,4
2016-11-28T16:00:00.791Z,0
2016-11-28T16:01:15.166Z,0
2016-11-28T16:02:29.619Z,0
2016-11-28T16:03:43.632Z,0
2016-11-28T16:04:57.669Z,0
2016-11-28T16:06:28.614Z,0
2016-11-28T16:07:43.363Z,0
2016-11-28T16:08:57.253Z,0
2016-11-28T16:10:11.002Z,0
2016-11-28T16:11:25.880Z,0
2016-11-28T16:12:40.402Z,0
2016-11-28T16:13:55.225Z,0
2016-11-28T16:15:09.575Z,0
2016-11-28T16:16:23.763Z,0
2016-11-28T16:17:37.736Z,0
2016-11-28T16:18:51.631Z,0
2016-11-28T16:20:06.744Z,0
2016-11-28T16:21:21.124Z,0
2016-11-28T16:22:35.836Z,0
2016-11-28T16:23:50.157Z,0
2016-11-28T16:25:04.826Z,0
2016-11-28T16:26:19.426Z,0
2016-11-28T16:27:33.586Z,0
2016-11-28T16:28:47.598Z,0
2016-11-28T16:30:02.014Z,0
2016-11-28T16:31:16.389Z,0
2016-11-28T16:32:31.397Z,0
2016-11-28T16:33:45.638Z,0
2016-11-28T16:35:00.251Z,0
2016-11-28T16:36:14.667Z,0
2016-11-28T16:37:28.973Z,0
2016-11-28T16:38:43.213Z,0
2016-11-28T16:39:58.435Z,0
2016-11-28T16:41:16.087Z,0
2016-11-28T16:42:30.829Z,0
2016-11-28T16:43:46.025Z,0
2016-11-28T16:45:00.433Z,0
2016-11-28T16:46:15.193Z,0
2016-11-28T16:47:29.616Z,0
2016-11-28T16:48:44.526Z,0
2016-11-28T16:49:59.532Z,0
2016-11-28T16:51:14.350Z,0
2016-11-28T16:52:29.838Z,0
2016-11-28T16:53:43.551Z,0
2016-11-28T16:54:58.025Z,0
2016-11-28T16:56:12.109Z,0
2016-11-28T16:57:26.480Z,0
2016-11-28T16:58:55.145Z,0
2016-11-28T17:00:09.797Z,0
2016-11-28T17:01:24.373Z,0
2016-11-28T17:02:39.201Z,0
2016-11-28T17:03:53.188Z,0
2016-11-28T17:05:07.431Z,0
2016-11-28T17:06:21.573Z,0
2016-11-28T17:07:36.252Z,0
2016-11-28T17:08:51.026Z,0
2016-11-28T17:10:04.938Z,0
2016-11-28T17:11:18.881Z,0
2016-11-28T17:12:33.402Z,0
2016-11-28T17:13:48.861Z,0
2016-11-28T17:15:05.506Z,0
2016-11-28T17:16:20.266Z,0
2016-11-28T17:17:35.068Z,0
2016-11-28T17:18:49.179Z,0
2016-11-28T17:20:03.069Z,0
2016-11-28T17:21:17.370Z,0
2016-11-28T17:22:31.842Z,0
2016-11-28T17:23:48.914Z,0
2016-11-28T17:25:04.975Z,0
2016-11-28T17:26:19.484Z,0
2016-11-28T17:27:34.134Z,0
2016-11-28T17:28:49.265Z,0
2016-11-28T17:30:03.381Z,0